Time;durP1;ratioP1;P1;durP2;ratioP2;P2;SDS_P1;SDS_P2;PMS_P1;PMS_P2;Temp;Humidity;BMP_temperature;BMP_pressure;BME280_temperature;BME280_humidity;BME280_pressure;Samples;Min_cycle;Max_cycle;Signal;HPM_P1;HPM_P2
2021/12/17 00:07:37;;;;;;;123.78;34.75;;;;;;;7.40;100.00;104968.63;10544965;28;20043;-58
2021/12/17 00:12:39;;;;;;;89.82;25.95;;;;;;;7.36;100.00;104971.13;10544208;28;20044;-59
2021/12/17 00:17:51;;;;;;;98.32;26.73;;;;;;;7.40;100.00;104980.81;10544147;28;20403;-59
2021/12/17 00:54:57;;;;;;;128.02;29.70;;;;;;;7.25;100.00;104960.47;10543776;28;20052;-58
2021/12/17 01:00:00;;;;;;;111.63;27.58;;;;;;;7.18;100.00;104940.34;10542680;28;20055;-61
2021/12/17 01:05:10;;;;;;;89.20;29.23;;;;;;;7.34;100.00;104949.38;10542456;28;20048;-59
2021/12/17 01:10:35;;;;;;;110.18;28.67;;;;;;;7.12;100.00;104955.81;10542804;28;20044;-58
2021/12/17 01:15:39;;;;;;;85.65;23.33;;;;;;;7.43;100.00;104962.59;10542052;28;20044;-58
2021/12/17 01:21:05;;;;;;;112.50;27.52;;;;;;;7.09;100.00;104930.53;10542336;28;20040;-58
2021/12/17 01:36:32;;;;;;;134.25;27.42;;;;;;;7.14;100.00;104930.66;10541461;28;20040;-59
2021/12/17 01:47:15;;;;;;;75.30;22.15;;;;;;;7.25;100.00;104923.97;10411914;28;20057;-58
2021/12/17 02:03:17;;;;;;;98.70;23.20;;;;;;;7.14;100.00;104951.50;10498485;28;20063;-60
2021/12/17 02:08:20;;;;;;;78.68;22.33;;;;;;;7.36;100.00;104968.53;10498862;28;20087;-59
2021/12/17 02:40:14;;;;;;;79.40;19.92;;;;;;;7.11;100.00;104946.22;10498101;28;20044;-59
2021/12/17 02:45:32;;;;;;;91.78;20.25;;;;;;;7.41;100.00;104954.78;10505117;28;20052;-59
2021/12/17 02:50:40;;;;;;;80.40;20.98;;;;;;;7.09;100.00;104953.13;10533832;28;20495;-59
2021/12/17 02:55:46;;;;;;;104.82;20.48;;;;;;;7.40;100.00;104963.44;10547483;28;20511;-60
2021/12/17 03:00:49;;;;;;;98.88;21.98;;;;;;;7.09;100.00;104956.59;10546617;28;20044;-60
2021/12/17 03:05:52;;;;;;;105.78;22.48;;;;;;;7.19;100.00;104952.50;10546841;28;20487;-59
2021/12/17 03:10:54;;;;;;;85.82;19.95;;;;;;;7.09;100.00;104958.34;10545695;28;20487;-60
2021/12/17 03:16:02;;;;;;;131.65;25.85;;;;;;;6.97;100.00;104938.09;10545496;28;20044;-59
2021/12/17 03:26:28;;;;;;;97.93;23.13;;;;;;;7.02;100.00;104939.06;10546943;28;20525;-59
2021/12/17 03:31:30;;;;;;;94.25;22.27;;;;;;;7.26;100.00;104933.53;10547123;28;20377;-59
2021/12/17 03:36:33;;;;;;;137.35;26.45;;;;;;;7.07;100.00;104937.44;10546229;28;20070;-59
2021/12/17 03:41:40;;;;;;;139.52;25.50;;;;;;;7.05;100.00;104919.16;10546176;28;20051;-59
2021/12/17 03:46:44;;;;;;;116.50;25.83;;;;;;;6.91;100.00;104917.09;10545757;28;20051;-59
2021/12/17 03:51:51;;;;;;;126.75;26.35;;;;;;;6.96;100.00;104928.50;10543429;28;20052;-59
2021/12/17 03:56:54;;;;;;;146.02;26.20;;;;;;;6.99;100.00;104924.25;10542907;28;20044;-58
2021/12/17 04:01:57;;;;;;;86.45;22.73;;;;;;;7.41;100.00;104941.72;10542604;28;20403;-60
2021/12/17 04:06:59;;;;;;;88.85;20.98;;;;;;;7.04;100.00;104919.13;10543183;28;20047;-59
2021/12/17 04:12:04;;;;;;;120.25;24.63;;;;;;;7.09;100.00;104921.84;10542340;28;20044;-59
2021/12/17 04:17:06;;;;;;;109.13;23.80;;;;;;;7.04;100.00;104927.84;10542120;28;20051;-59
2021/12/17 04:22:09;;;;;;;107.32;23.30;;;;;;;6.89;100.00;104935.28;10540863;28;20048;-60
2021/12/17 04:27:11;;;;;;;107.85;22.55;;;;;;;6.88;100.00;104910.09;10541964;28;20051;-60
2021/12/17 04:32:13;;;;;;;109.22;22.35;;;;;;;6.99;100.00;104941.59;10541490;28;20051;-59
2021/12/17 04:37:16;;;;;;;108.63;21.02;;;;;;;7.00;100.00;104935.56;10541728;28;20048;-60
2021/12/17 04:42:27;;;;;;;105.50;21.92;;;;;;;6.95;100.00;104929.34;10541688;28;20058;-59
2021/12/17 04:58:14;;;;;;;73.95;19.55;;;;;;;6.91;100.00;104925.81;10542815;28;20040;-59
2021/12/17 05:03:16;;;;;;;116.95;21.25;;;;;;;6.93;100.00;104918.03;10542633;28;20048;-60
2021/12/17 05:08:22;;;;;;;86.22;19.38;;;;;;;7.06;100.00;104922.66;10541869;28;20085;-61
2021/12/17 05:19:10;;;;;;;98.95;20.55;;;;;;;7.13;100.00;104919.38;10542004;28;20051;-59
2021/12/17 05:24:12;;;;;;;80.63;18.48;;;;;;;7.06;100.00;104931.38;10541553;28;20040;-59
2021/12/17 05:29:15;;;;;;;82.38;18.08;;;;;;;7.15;100.00;105279.09;10542201;28;20062;-60
2021/12/17 05:34:17;;;;;;;93.45;19.52;;;;;;;7.03;100.00;104953.88;10541205;28;20059;-60
2021/12/17 05:39:19;;;;;;;91.53;19.73;;;;;;;6.98;100.00;104960.69;10541284;28;20044;-61
2021/12/17 05:44:24;;;;;;;104.82;21.65;;;;;;;6.99;100.00;104952.94;10541053;28;20051;-59
2021/12/17 05:49:27;;;;;;;102.30;22.75;;;;;;;7.18;100.00;104953.38;10541296;28;20052;-60
2021/12/17 05:54:30;;;;;;;113.85;22.55;;;;;;;7.02;100.00;104947.75;10540684;28;20044;-60
2021/12/17 05:59:34;;;;;;;92.75;20.80;;;;;;;7.10;100.00;104942.75;10540429;28;20502;-59
2021/12/17 06:04:37;;;;;;;53.03;17.30;;;;;;;7.06;100.00;104946.09;10540299;28;20044;-59
2021/12/17 06:09:40;;;;;;;68.00;18.85;;;;;;;7.20;100.00;104944.72;10540537;28;20048;-59
2021/12/17 06:14:42;;;;;;;67.20;18.38;;;;;;;7.23;100.00;104952.63;10539912;28;20051;-59
2021/12/17 06:19:44;;;;;;;74.50;18.52;;;;;;;7.22;100.00;104950.84;10539649;28;20048;-61
2021/12/17 06:24:46;;;;;;;78.93;20.67;;;;;;;7.22;100.00;104958.66;10539757;28;20048;-59
2021/12/17 06:29:49;;;;;;;61.63;17.92;;;;;;;7.49;100.00;104973.19;10539814;28;20056;-61
2021/12/17 06:34:52;;;;;;;78.22;19.95;;;;;;;7.25;100.00;104966.56;10539468;28;20052;-60
2021/12/17 06:39:54;;;;;;;89.78;19.25;;;;;;;7.48;100.00;104966.22;10539750;28;20059;-59
2021/12/17 06:45:01;;;;;;;71.00;18.42;;;;;;;7.18;100.00;104964.66;10539223;28;20051;-61
2021/12/17 06:55:46;;;;;;;58.95;20.27;;;;;;;7.42;100.00;104946.09;10539378;28;20040;-59
2021/12/17 07:10:59;;;;;;;102.47;20.85;;;;;;;7.18;100.00;104925.56;10539061;28;20056;-59
2021/12/17 07:42:17;;;;;;;96.03;23.60;;;;;;;7.30;100.00;104948.41;10545889;28;20044;-59
2021/12/17 07:47:19;;;;;;;101.80;21.17;;;;;;;7.27;100.00;104947.47;10545830;28;20046;-58
2021/12/17 07:52:22;;;;;;;173.80;29.13;;;;;;;7.31;100.00;104977.97;10545512;28;20065;-59
2021/12/17 07:57:24;;;;;;;65.82;20.50;;;;;;;7.57;100.00;104975.97;10545494;28;20050;-62
2021/12/17 08:02:27;;;;;;;73.00;20.13;;;;;;;7.57;100.00;104965.53;10546047;28;20051;-61
2021/12/17 08:07:29;;;;;;;91.68;21.65;;;;;;;7.33;100.00;104958.03;10544939;28;20055;-59
2021/12/17 08:12:31;;;;;;;106.35;22.52;;;;;;;7.22;100.00;104950.84;10544937;28;20051;-61
2021/12/17 08:28:12;;;;;;;78.40;18.77;;;;;;;7.62;100.00;104996.06;10543775;28;20048;-61
2021/12/17 08:33:19;;;;;;;94.00;21.67;;;;;;;7.44;100.00;104974.81;10544367;28;20051;-60
2021/12/17 08:38:22;;;;;;;98.35;21.17;;;;;;;7.67;100.00;104977.94;10542903;28;20047;-60
2021/12/17 08:43:25;;;;;;;85.75;19.83;;;;;;;7.47;100.00;104979.22;10542487;28;20044;-60
2021/12/17 08:48:27;;;;;;;99.13;21.35;;;;;;;7.48;100.00;104973.13;10543617;28;20052;-61
2021/12/17 08:53:29;;;;;;;93.93;21.70;;;;;;;7.60;100.00;104978.66;10542929;28;20044;-60
2021/12/17 08:58:33;;;;;;;70.15;20.38;;;;;;;7.52;100.00;104988.03;10542725;28;20059;-60
2021/12/17 09:03:36;;;;;;;69.00;22.30;;;;;;;7.62;100.00;104990.00;10542631;28;20059;-60
2021/12/17 09:08:38;;;;;;;47.15;18.65;;;;;;;7.86;100.00;105012.25;10542257;28;20044;-59
2021/12/17 09:13:40;;;;;;;44.35;16.10;;;;;;;7.66;100.00;105004.84;10542244;28;20055;-61
2021/12/17 09:18:45;;;;;;;65.75;17.60;;;;;;;7.60;100.00;105005.59;10541913;28;20048;-60
2021/12/17 09:23:47;;;;;;;52.67;14.75;;;;;;;7.62;100.00;105001.28;10541725;28;20048;-60
2021/12/17 09:28:50;;;;;;;51.85;12.93;;;;;;;7.53;100.00;104985.47;10541802;28;20044;-60
2021/12/17 09:33:53;;;;;;;46.42;12.05;;;;;;;7.57;100.00;105022.91;10541923;28;20051;-61
2021/12/17 09:38:55;;;;;;;36.72;11.30;;;;;;;7.66;100.00;105014.41;10541950;28;20055;-60
2021/12/17 09:43:59;;;;;;;36.67;11.45;;;;;;;7.60;100.00;105015.16;10541082;28;20059;-61
2021/12/17 09:49:01;;;;;;;32.72;11.77;;;;;;;7.69;100.00;105027.53;10540451;28;20070;-59
2021/12/17 09:54:04;;;;;;;38.55;11.70;;;;;;;7.61;100.00;105045.59;10540262;28;20048;-59
2021/12/17 09:59:06;;;;;;;30.73;10.77;;;;;;;7.72;100.00;105030.22;10540908;28;20055;-62
2021/12/17 10:04:27;;;;;;;23.95;9.57;;;;;;;7.74;100.00;105033.72;10540364;28;20070;-61
2021/12/17 10:09:34;;;;;;;30.50;9.50;;;;;;;7.71;100.00;105046.69;10540807;28;20044;-59
2021/12/17 10:14:36;;;;;;;31.60;9.50;;;;;;;7.78;100.00;105065.16;10540025;28;20419;-59
2021/12/17 10:19:49;;;;;;;21.95;8.18;;;;;;;7.80;100.00;105045.19;10540222;28;20066;-60
2021/12/17 10:25:04;;;;;;;24.35;8.20;;;;;;;7.77;100.00;105039.91;10540004;28;20059;-59
2021/12/17 10:30:15;;;;;;;24.27;8.25;;;;;;;7.78;100.00;105032.94;10539751;28;20070;-59
2021/12/17 10:35:21;;;;;;;16.75;8.43;;;;;;;7.85;100.00;105041.78;10539841;28;20044;-60
2021/12/17 10:40:58;;;;;;;18.20;7.28;;;;;;;7.85;100.00;105040.06;10539849;28;20052;-61
2021/12/17 10:46:13;;;;;;;13.57;5.70;;;;;;;7.75;100.00;105025.03;10540136;28;20048;-60
2021/12/17 10:56:48;;;;;;;9.85;5.88;;;;;;;8.13;100.00;105045.88;10539158;28;20056;-60
2021/12/17 11:02:01;;;;;;;10.05;4.93;;;;;;;8.28;100.00;105043.56;10539054;28;20055;-60
2021/12/17 11:07:06;;;;;;;10.07;4.72;;;;;;;8.49;100.00;105044.88;10547313;28;20498;-59
2021/12/17 11:12:15;;;;;;;15.32;8.57;;;;;;;8.14;100.00;105024.16;10547321;28;20123;-59
2021/12/17 11:17:20;;;;;;;19.08;9.60;;;;;;;8.05;100.00;105026.56;10546979;28;20051;-59
2021/12/17 11:22:41;;;;;;;17.00;8.20;;;;;;;8.16;100.00;105036.38;10546746;28;20052;-59
2021/12/17 11:27:44;;;;;;;15.35;8.23;;;;;;;8.27;100.00;105038.31;10546627;28;20475;-59
2021/12/17 11:32:48;;;;;;;12.13;6.95;;;;;;;8.41;100.00;105033.38;10544885;28;20139;-59
2021/12/17 11:37:53;;;;;;;11.10;6.13;;;;;;;8.27;100.00;105026.16;10546328;28;20127;-59
2021/12/17 11:43:02;;;;;;;8.40;5.10;;;;;;;8.11;100.00;105026.69;10545829;28;20054;-59
2021/12/17 11:48:21;;;;;;;8.77;3.92;;;;;;;8.06;100.00;105037.03;10544734;28;20048;-60
2021/12/17 11:53:24;;;;;;;7.10;4.88;;;;;;;8.15;100.00;105023.28;10545211;28;20051;-59
2021/12/17 11:58:43;;;;;;;9.80;5.90;;;;;;;8.22;100.00;105016.44;10545705;28;20044;-60
2021/12/17 12:03:46;;;;;;;10.40;5.57;;;;;;;8.05;100.00;105009.16;10545251;28;20055;-58
2021/12/17 12:08:53;;;;;;;9.40;5.53;;;;;;;8.10;100.00;105012.78;10544976;28;20040;-60
2021/12/17 12:13:56;;;;;;;9.95;5.35;;;;;;;7.96;100.00;105003.75;10544743;28;20048;-60
2021/12/17 12:19:08;;;;;;;7.07;3.75;;;;;;;8.20;100.00;104998.16;10545119;28;20123;-59
2021/12/17 12:24:12;;;;;;;5.72;2.53;;;;;;;8.07;100.00;104990.91;10544341;28;20048;-60
2021/12/17 12:29:16;;;;;;;2.22;1.80;;;;;;;8.21;100.00;104994.69;10544683;28;20051;-60
2021/12/17 12:34:29;;;;;;;2.55;1.25;;;;;;;8.22;100.00;105003.41;10543720;28;20044;-60
2021/12/17 12:39:42;;;;;;;3.30;1.40;;;;;;;8.40;100.00;105016.81;10544303;28;20051;-60
2021/12/17 12:44:44;;;;;;;2.47;1.90;;;;;;;8.38;100.00;104995.03;10543540;28;20055;-59
2021/12/17 12:49:50;;;;;;;6.55;3.17;;;;;;;8.43;100.00;104993.41;10543093;28;20067;-60
2021/12/17 12:54:55;;;;;;;4.97;3.63;;;;;;;8.49;100.00;104983.09;10541891;28;20051;-60
2021/12/17 13:00:00;;;;;;;4.18;3.78;;;;;;;8.53;100.00;104989.25;10543953;28;20059;-60
2021/12/17 13:05:06;;;;;;;6.00;3.40;;;;;;;8.50;100.00;104991.78;10542703;28;20051;-61
2021/12/17 13:10:21;;;;;;;5.38;4.22;;;;;;;8.53;100.00;104978.78;10542574;28;20055;-59
2021/12/17 13:15:49;;;;;;;8.10;6.82;;;;;;;8.63;100.00;104948.50;10541975;28;20047;-59
2021/12/17 13:26:30;;;;;;;7.00;5.82;;;;;;;8.48;100.00;104977.81;10541264;28;20059;-59
2021/12/17 13:32:10;;;;;;;6.60;5.93;;;;;;;8.70;100.00;104979.94;10541623;28;20040;-59
2021/12/17 13:37:19;;;;;;;8.15;6.75;;;;;;;8.61;100.00;104976.28;10540071;28;20044;-60
2021/12/17 13:42:24;;;;;;;8.18;7.10;;;;;;;8.48;100.00;104973.47;10541533;28;20044;-59
2021/12/17 13:47:32;;;;;;;8.00;7.20;;;;;;;8.47;100.00;104944.72;10540033;28;20052;-61
2021/12/17 13:52:37;;;;;;;7.25;6.55;;;;;;;8.51;100.00;104959.59;10541553;28;20423;-61
2021/12/17 13:57:41;;;;;;;10.35;6.55;;;;;;;8.58;100.00;104966.69;10540879;28;20055;-60
2021/12/17 14:02:45;;;;;;;7.93;6.03;;;;;;;8.51;100.00;104925.66;10540948;28;20044;-60
2021/12/17 14:07:50;;;;;;;6.88;5.18;;;;;;;8.64;100.00;104925.00;10540644;28;20052;-60
2021/12/17 14:12:52;;;;;;;6.65;6.03;;;;;;;8.48;100.00;104931.69;10539971;28;20071;-59
2021/12/17 14:18:16;;;;;;;7.03;6.32;;;;;;;8.44;100.00;104936.81;10540068;28;20450;-60
2021/12/17 14:23:29;;;;;;;7.00;6.35;;;;;;;8.37;100.00;104922.72;10540388;28;20052;-61
2021/12/17 14:28:37;;;;;;;7.25;6.43;;;;;;;8.51;100.00;104928.25;10539623;28;20399;-60
2021/12/17 14:33:44;;;;;;;10.25;7.25;;;;;;;8.44;100.00;104927.28;10539143;28;20067;-60
2021/12/17 14:38:57;;;;;;;10.45;7.00;;;;;;;8.47;100.00;104929.94;10543719;28;20097;-60
2021/12/17 14:44:11;;;;;;;8.13;6.28;;;;;;;8.37;100.00;104946.22;10548169;28;20051;-59
2021/12/17 15:04:42;;;;;;;6.13;5.53;;;;;;;8.16;100.00;104902.34;10547563;28;20063;-60
2021/12/17 15:09:46;;;;;;;5.90;5.32;;;;;;;8.26;100.00;104911.25;10547638;28;20050;-60
2021/12/17 15:15:12;;;;;;;8.70;5.07;;;;;;;8.19;100.00;104920.69;10547035;28;20047;-60
2021/12/17 15:20:16;;;;;;;7.07;5.55;;;;;;;7.95;100.00;104911.53;10547225;28;20040;-59
2021/12/17 15:25:19;;;;;;;6.40;5.53;;;;;;;7.96;100.00;104912.41;10546540;28;20048;-59
2021/12/17 15:30:30;;;;;;;7.28;6.57;;;;;;;7.98;100.00;104905.47;10546936;28;20050;-60
2021/12/17 15:35:33;;;;;;;7.60;5.70;;;;;;;7.92;100.00;104895.81;10546209;28;20477;-61
2021/12/17 15:40:43;;;;;;;9.27;6.88;;;;;;;8.00;100.00;104902.06;10544861;28;20055;-59
2021/12/17 15:45:47;;;;;;;9.07;7.20;;;;;;;8.20;100.00;104909.38;10544897;28;20059;-58
2021/12/17 15:50:50;;;;;;;9.77;6.68;;;;;;;8.02;100.00;104886.44;10545221;28;20487;-59
2021/12/17 15:55:52;;;;;;;7.78;5.82;;;;;;;7.98;100.00;104898.56;10545653;28;20087;-60
2021/12/17 16:00:55;;;;;;;9.05;7.10;;;;;;;8.06;100.00;104918.69;10545364;28;20050;-59
2021/12/17 16:05:57;;;;;;;11.27;8.27;;;;;;;7.99;100.00;104909.88;10545263;28;20063;-60
2021/12/17 16:11:17;;;;;;;8.35;7.40;;;;;;;8.08;100.00;104906.53;10544837;28;20063;-61
2021/12/17 16:21:42;;;;;;;8.43;6.82;;;;;;;7.93;100.00;104913.22;10545004;28;20040;-59
2021/12/17 16:26:44;;;;;;;11.57;6.82;;;;;;;8.25;100.00;104946.88;10543390;28;20384;-60
2021/12/17 16:31:48;;;;;;;9.65;7.20;;;;;;;7.97;100.00;104948.97;10543905;28;20059;-60
2021/12/17 16:36:50;;;;;;;11.80;8.13;;;;;;;7.92;100.00;104929.75;10543926;28;20055;-60
2021/12/17 16:41:54;;;;;;;9.27;7.00;;;;;;;7.96;100.00;104934.16;10543527;28;20052;-60
2021/12/17 16:47:03;;;;;;;15.07;7.78;;;;;;;7.94;100.00;104907.16;10544125;28;20054;-60
2021/12/17 16:52:05;;;;;;;10.43;8.27;;;;;;;8.01;100.00;104921.22;10542958;28;20423;-59
2021/12/17 16:57:08;;;;;;;11.27;8.68;;;;;;;8.13;100.00;104925.78;10541847;28;20047;-60
2021/12/17 17:02:10;;;;;;;12.65;8.50;;;;;;;8.00;100.00;104933.38;10541791;28;20055;-59
2021/12/17 17:07:12;;;;;;;11.68;7.72;;;;;;;7.95;100.00;104931.50;10542739;28;20051;-59
2021/12/17 17:12:15;;;;;;;9.23;7.50;;;;;;;8.04;100.00;104941.28;10541124;28;20407;-61
2021/12/17 17:17:17;;;;;;;15.90;8.38;;;;;;;7.94;100.00;104972.41;10542281;28;20051;-60
2021/12/17 17:22:19;;;;;;;12.48;9.07;;;;;;;7.87;100.00;104934.00;10542653;28;20047;-59
2021/12/17 17:27:22;;;;;;;10.13;7.90;;;;;;;8.11;100.00;104938.81;10542406;28;20055;-60
2021/12/17 17:32:24;;;;;;;12.38;9.75;;;;;;;7.96;100.00;104912.41;10541660;28;20044;-61
2021/12/17 17:37:28;;;;;;;13.30;9.45;;;;;;;7.99;100.00;104915.09;10541963;28;20048;-59
2021/12/17 17:42:31;;;;;;;12.18;9.63;;;;;;;7.93;100.00;104907.13;10541177;28;20044;-62
2021/12/17 17:47:34;;;;;;;15.52;10.18;;;;;;;7.85;100.00;104906.09;10541888;28;20052;-59
2021/12/17 17:52:36;;;;;;;13.20;9.43;;;;;;;7.97;100.00;104909.84;10540650;28;20047;-60
2021/12/17 17:57:38;;;;;;;12.40;9.57;;;;;;;7.98;100.00;104902.88;10540755;28;20053;-60
2021/12/17 18:02:42;;;;;;;16.77;9.93;;;;;;;7.97;100.00;104898.53;10540525;28;20051;-59
2021/12/17 18:07:45;;;;;;;15.73;10.18;;;;;;;7.89;100.00;104895.75;10540404;28;20411;-59
2021/12/17 18:12:52;;;;;;;13.00;9.70;;;;;;;7.84;100.00;104918.28;10540335;28;20059;-58
2021/12/17 18:17:56;;;;;;;15.18;11.52;;;;;;;8.00;100.00;104906.38;10539192;28;20047;-60
2021/12/17 18:22:58;;;;;;;10.85;9.27;;;;;;;8.13;100.00;104918.81;10540421;28;20127;-59
2021/12/17 18:28:00;;;;;;;14.88;10.25;;;;;;;7.83;100.00;104903.44;10539916;28;20040;-59
2021/12/17 18:33:06;;;;;;;16.73;11.77;;;;;;;7.94;100.00;104908.91;10539372;28;20489;-59
2021/12/17 18:38:09;;;;;;;15.65;10.77;;;;;;;7.95;100.00;104911.53;10539960;28;20047;-59
2021/12/17 18:48:32;;;;;;;13.57;9.38;;;;;;;8.24;100.00;104928.59;10539642;28;20064;-60
2021/12/17 18:53:34;;;;;;;15.48;10.70;;;;;;;8.08;100.00;104924.81;10539632;28;20534;-59
2021/12/17 18:58:37;;;;;;;17.10;10.82;;;;;;;8.00;100.00;104911.59;10539831;28;20055;-61
2021/12/17 19:03:39;;;;;;;16.33;10.95;;;;;;;7.96;100.00;104913.28;10539704;28;20430;-59
2021/12/17 19:08:42;;;;;;;14.43;10.60;;;;;;;7.92;100.00;104911.47;10539432;28;20044;-60
2021/12/17 19:13:45;;;;;;;12.70;9.18;;;;;;;7.95;100.00;104916.75;10538862;28;20118;-60
2021/12/17 19:23:50;;;;;;;12.15;8.43;;;;;;;7.84;100.00;104931.31;10539752;28;20479;-59
2021/12/17 19:28:53;;;;;;;10.43;7.57;;;;;;;8.01;100.00;104926.44;10546685;28;20476;-60
2021/12/17 19:33:57;;;;;;;6.88;5.53;;;;;;;7.99;100.00;104921.19;10546301;28;20055;-60
2021/12/17 19:39:02;;;;;;;11.38;7.20;;;;;;;8.00;100.00;104917.72;10546469;28;20044;-60
2021/12/17 19:44:05;;;;;;;10.77;7.32;;;;;;;7.97;100.00;104942.91;10545609;28;20396;-60
2021/12/17 19:54:10;;;;;;;12.05;7.97;;;;;;;7.72;100.00;104916.28;10545798;28;20059;-60
2021/12/17 19:59:13;;;;;;;10.55;6.60;;;;;;;7.97;100.00;104919.41;10545959;28;20044;-60
2021/12/17 20:04:15;;;;;;;10.10;6.60;;;;;;;8.18;100.00;104929.34;10544340;28;20464;-59
2021/12/17 20:09:18;;;;;;;11.05;7.25;;;;;;;8.08;100.00;104910.03;10545368;28;20090;-60
2021/12/17 20:14:21;;;;;;;12.27;7.75;;;;;;;7.94;100.00;104901.94;10544539;28;20051;-60
2021/12/17 20:19:24;;;;;;;10.52;7.07;;;;;;;7.88;100.00;104919.22;10544493;28;20040;-59
2021/12/17 20:24:26;;;;;;;10.27;7.53;;;;;;;7.80;100.00;104912.13;10544188;28;20506;-59
2021/12/17 20:29:28;;;;;;;16.77;8.20;;;;;;;7.91;100.00;104891.44;10544257;28;20395;-59
2021/12/17 20:34:31;;;;;;;15.93;9.45;;;;;;;7.91;100.00;104894.06;10543785;28;20519;-61
2021/12/17 20:39:33;;;;;;;16.27;9.95;;;;;;;7.85;100.00;104896.56;10543966;28;20044;-61
2021/12/17 20:44:35;;;;;;;14.90;9.00;;;;;;;7.92;100.00;104901.03;10543514;28;20048;-59
2021/12/17 20:49:38;;;;;;;19.88;10.40;;;;;;;7.75;100.00;104879.84;10544005;28;20055;-60
2021/12/17 20:54:40;;;;;;;12.68;8.23;;;;;;;8.00;100.00;104895.94;10543134;28;20044;-59
2021/12/17 20:59:42;;;;;;;21.05;10.15;;;;;;;7.72;100.00;104918.03;10543137;28;20048;-59
2021/12/17 21:04:45;;;;;;;18.02;9.30;;;;;;;7.86;100.00;104898.28;10542754;28;20051;-60
2021/12/17 21:09:47;;;;;;;16.35;9.52;;;;;;;8.02;100.00;104919.47;10542286;28;20393;-59
2021/12/17 21:14:50;;;;;;;23.92;11.13;;;;;;;7.89;100.00;104921.84;10542249;28;20048;-60
2021/12/17 21:19:52;;;;;;;21.00;11.50;;;;;;;7.94;100.00;104901.94;10542339;28;20048;-59
2021/12/17 21:24:54;;;;;;;23.38;10.98;;;;;;;8.05;100.00;104904.75;10542141;28;20048;-61
2021/12/17 21:29:57;;;;;;;22.35;11.73;;;;;;;7.85;100.00;104900.88;10541900;28;20051;-61
2021/12/17 21:35:05;;;;;;;25.58;12.02;;;;;;;7.94;100.00;104895.84;10541949;28;20048;-60
2021/12/17 21:40:08;;;;;;;28.15;13.93;;;;;;;7.73;100.00;104891.97;10541546;28;20048;-58
2021/12/17 21:45:11;;;;;;;23.77;12.20;;;;;;;7.82;100.00;104995.66;10541106;28;20056;-58
2021/12/17 21:50:16;;;;;;;24.20;12.90;;;;;;;7.93;100.00;104905.38;10540326;28;20500;-58
2021/12/17 21:55:19;;;;;;;36.53;15.32;;;;;;;7.74;100.00;104890.25;10541433;28;20052;-59
2021/12/17 22:00:25;;;;;;;32.60;14.68;;;;;;;7.83;100.00;104903.44;10540995;28;20075;-60
2021/12/17 22:05:32;;;;;;;26.38;12.80;;;;;;;7.66;100.00;104891.81;10540790;28;20506;-58
2021/12/17 22:10:35;;;;;;;22.40;11.05;;;;;;;7.77;100.00;104896.41;10541241;28;20102;-60
2021/12/17 22:15:37;;;;;;;28.35;13.15;;;;;;;7.90;100.00;104912.28;10540411;28;20051;-59
2021/12/17 22:25:44;;;;;;;17.67;9.80;;;;;;;7.88;100.00;104901.81;10540042;28;20511;-60
2021/12/17 22:30:47;;;;;;;22.77;10.85;;;;;;;7.91;100.00;104901.00;10539965;28;20054;-59
2021/12/17 22:35:49;;;;;;;21.42;9.98;;;;;;;7.59;100.00;104890.81;10539666;28;20397;-58
2021/12/17 22:41:07;;;;;;;17.60;9.18;;;;;;;7.76;100.00;104898.97;10539697;28;20059;-58
2021/12/17 22:46:10;;;;;;;15.98;7.32;;;;;;;7.52;100.00;104886.31;10538729;28;20052;-59
2021/12/17 22:51:12;;;;;;;13.27;6.80;;;;;;;7.70;100.00;104891.91;10539152;28;20510;-59
2021/12/17 22:56:14;;;;;;;10.75;5.50;;;;;;;7.72;100.00;104908.47;10539204;28;20040;-60
2021/12/17 23:01:27;;;;;;;10.40;5.85;;;;;;;7.55;100.00;104876.81;10544731;28;20436;-60
2021/12/17 23:06:43;;;;;;;12.07;5.97;;;;;;;7.68;100.00;104879.66;10547470;28;20519;-61
2021/12/17 23:11:49;;;;;;;9.38;4.15;;;;;;;7.52;100.00;104883.72;10547426;28;20040;-58
2021/12/17 23:16:51;;;;;;;7.82;4.05;;;;;;;7.57;100.00;104895.97;10547588;28;20051;-60
2021/12/17 23:21:54;;;;;;;8.30;3.90;;;;;;;7.71;100.00;104911.91;10547342;28;20126;-60
2021/12/17 23:26:57;;;;;;;8.02;4.07;;;;;;;7.51;100.00;104884.53;10547121;28;20052;-59
2021/12/17 23:32:00;;;;;;;9.32;4.18;;;;;;;7.72;100.00;104900.63;10546409;28;20055;-58
2021/12/17 23:37:05;;;;;;;13.38;5.47;;;;;;;7.54;100.00;104890.69;10546473;28;20059;-59
2021/12/17 23:42:08;;;;;;;10.98;6.15;;;;;;;7.72;100.00;104886.72;10546473;28;20041;-59
2021/12/17 23:47:10;;;;;;;12.13;5.22;;;;;;;7.61;100.00;104879.53;10545797;28;20479;-59
2021/12/17 23:52:13;;;;;;;11.13;4.72;;;;;;;7.50;100.00;104870.63;10546471;28;20055;-59
2021/12/17 23:57:16;;;;;;;11.70;5.13;;;;;;;7.50;100.00;104872.34;10545895;28;20059;-60
